SVMG/PMV METAR and TAF weather

Enter ICAO airport designator
Station Type Date Time Source
SVMG METAR 2020/06/05 12:02 UTC NOAA

SVMG 051202Z AUTO 09014KT NCD 26/23 Q1016


Station Type Date Time Source
SVMG Decoded METAR 2020/06/05 12:02 UTC NOAA

Margarita / Del Carib, Venezuela (SVMG) 10-55N 063-59W
Jun 05, 2020 - 08:02 AM EDT / 2020.06.05 1202 UTC
Wind: from the E (090 degrees) at 16 MPH (14 KT):0
Temperature: 78 F (26 C)
Dew Point: 73 F (23 C)
Relative Humidity: 83%
Pressure (altimeter): 30.00 in. Hg (1016 hPa)
ob: SVMG 051202Z AUTO 09014KT NCD 26/23 Q1016
cycle: 12

Station Type Date Time Source
SVMG TAF 2020/06/05 12:03 UTC NOAA

TAF SVMG 051000Z 0512/0612 24005KT 9999 BKN016 TX31/18Z TN25/09Z
TEMPO 0512/0516 27007KT 9999 DZ SCT070

Example: see airport list